Time;durP1;ratioP1;P1;durP2;ratioP2;P2;SDS_P1;SDS_P2;PMS_P1;PMS_P2;Temp;Humidity;BMP_temperature;BMP_pressure;BME280_temperature;BME280_humidity;BME280_pressure;Samples;Min_cycle;Max_cycle;Signal;HPM_P1;HPM_P2
2023/09/29 00:00:13;;;;;;;10.30;9.80;;;23.00;99.90;;;;;;5036970;28;20512;-67
2023/09/29 00:02:40;;;;;;;8.90;8.40;;;23.00;99.90;;;;;;5035273;28;20445;-68
2023/09/29 00:05:14;;;;;;;8.60;8.30;;;23.00;99.90;;;;;;5035184;28;20463;-68
2023/09/29 00:07:42;;;;;;;9.47;9.07;;;23.00;99.90;;;;;;5035242;28;20473;-67
2023/09/29 00:10:13;;;;;;;10.60;10.00;;;23.00;99.90;;;;;;5036787;28;20869;-68
2023/09/29 00:12:41;;;;;;;11.37;10.40;;;23.00;99.90;;;;;;5038003;28;20488;-68
2023/09/29 00:15:09;;;;;;;10.00;9.50;;;23.00;99.90;;;;;;5035878;28;20480;-68
2023/09/29 00:17:36;;;;;;;10.07;9.47;;;23.00;99.90;;;;;;5035779;28;20464;-67
2023/09/29 00:20:11;;;;;;;9.43;8.93;;;23.00;99.90;;;;;;5035806;28;20512;-66
2023/09/29 00:22:40;;;;;;;8.70;8.30;;;23.00;99.90;;;;;;5036437;28;20437;-68
2023/09/29 00:25:08;;;;;;;9.93;9.53;;;23.00;99.90;;;;;;5035839;28;20465;-68
2023/09/29 00:27:35;;;;;;;9.63;9.23;;;23.00;99.90;;;;;;5036143;28;20461;-66
2023/09/29 00:30:04;;;;;;;9.97;9.47;;;22.90;99.90;;;;;;5036434;28;20473;-68
2023/09/29 00:32:31;;;;;;;9.53;9.00;;;23.00;99.90;;;;;;5036891;28;20483;-67
2023/09/29 00:34:58;;;;;;;9.57;8.97;;;22.90;99.90;;;;;;5035845;28;20457;-67
2023/09/29 00:37:25;;;;;;;10.10;9.40;;;22.90;99.90;;;;;;5035334;28;20457;-66
2023/09/29 00:39:55;;;;;;;9.57;9.20;;;22.90;99.90;;;;;;5034957;28;20485;-68
2023/09/29 00:42:22;;;;;;;9.53;9.10;;;22.90;99.90;;;;;;5035836;28;20503;-68
2023/09/29 00:44:49;;;;;;;10.23;9.73;;;22.90;99.90;;;;;;5037525;28;20504;-66
2023/09/29 00:47:16;;;;;;;9.90;9.27;;;23.00;99.90;;;;;;5036578;28;20461;-67
2023/09/29 00:49:43;;;;;;;10.33;9.73;;;22.90;99.90;;;;;;5036344;28;20449;-68
2023/09/29 00:52:12;;;;;;;9.23;8.83;;;22.90;99.90;;;;;;5036250;28;20492;-67
2023/09/29 00:54:39;;;;;;;9.33;8.70;;;22.90;99.90;;;;;;5037002;28;20499;-68
2023/09/29 00:57:07;;;;;;;9.83;9.43;;;22.90;99.90;;;;;;5038840;28;20476;-66
2023/09/29 00:59:35;;;;;;;10.50;9.97;;;22.90;99.90;;;;;;5041325;28;20476;-67
2023/09/29 01:02:05;;;;;;;11.07;10.47;;;23.00;99.90;;;;;;5040361;28;20449;-68
2023/09/29 01:04:34;;;;;;;10.50;10.00;;;22.90;99.90;;;;;;5033050;28;20537;-68
2023/09/29 01:07:02;;;;;;;10.43;9.93;;;22.90;99.90;;;;;;5039886;28;20494;-67
2023/09/29 01:09:29;;;;;;;9.93;9.43;;;22.90;99.90;;;;;;5041642;28;20445;-67
2023/09/29 01:11:56;;;;;;;10.23;9.77;;;22.90;99.90;;;;;;5041712;28;20444;-66
2023/09/29 01:14:25;;;;;;;10.93;10.43;;;22.90;99.90;;;;;;5037254;28;20487;-68
2023/09/29 01:16:52;;;;;;;9.57;9.13;;;22.90;99.90;;;;;;5037484;28;20489;-67
2023/09/29 01:19:20;;;;;;;9.40;9.00;;;22.90;99.90;;;;;;5037108;28;21040;-67
2023/09/29 01:21:47;;;;;;;10.37;9.80;;;22.90;99.90;;;;;;5038937;28;20514;-67
2023/09/29 01:24:15;;;;;;;9.10;8.70;;;22.90;99.90;;;;;;5038539;28;20449;-67
2023/09/29 01:26:45;;;;;;;10.00;9.50;;;22.90;99.90;;;;;;5037450;28;20994;-67
2023/09/29 01:29:12;;;;;;;10.70;9.90;;;22.90;99.90;;;;;;5045133;28;20442;-68
2023/09/29 01:31:41;;;;;;;10.10;9.70;;;22.90;99.90;;;;;;5039663;28;20441;-68
2023/09/29 01:34:08;;;;;;;10.20;9.80;;;22.90;99.90;;;;;;5035150;28;20458;-67
2023/09/29 01:36:36;;;;;;;11.33;10.73;;;22.90;99.90;;;;;;5035035;28;20504;-68
2023/09/29 01:39:04;;;;;;;10.00;9.40;;;22.90;99.90;;;;;;5034266;28;20479;-67
2023/09/29 01:41:32;;;;;;;9.50;9.10;;;22.90;99.90;;;;;;5034588;28;20517;-68
2023/09/29 01:43:59;;;;;;;10.13;9.70;;;22.90;99.90;;;;;;5026372;28;20540;-68
2023/09/29 01:46:26;;;;;;;10.23;9.23;;;22.90;99.90;;;;;;5033950;28;20496;-68
2023/09/29 01:48:53;;;;;;;11.20;10.60;;;22.90;99.90;;;;;;5034127;28;20473;-67
2023/09/29 01:51:19;;;;;;;9.20;8.80;;;22.90;99.90;;;;;;5034120;28;20477;-68
2023/09/29 01:53:48;;;;;;;10.50;9.90;;;22.90;99.90;;;;;;5033605;28;20983;-67
2023/09/29 01:56:21;;;;;;;9.60;9.00;;;22.90;99.90;;;;;;5033890;28;20512;-67
2023/09/29 01:58:49;;;;;;;10.90;10.00;;;22.90;99.90;;;;;;5032607;28;20979;-67
2023/09/29 02:01:16;;;;;;;9.03;8.47;;;22.90;99.90;;;;;;5033017;28;20879;-68
2023/09/29 02:03:45;;;;;;;10.10;9.60;;;22.90;99.90;;;;;;5033383;28;20538;-67
2023/09/29 02:06:13;;;;;;;10.97;10.20;;;22.90;99.90;;;;;;5033137;28;20531;-67
2023/09/29 02:08:41;;;;;;;9.97;9.57;;;22.90;99.90;;;;;;5032648;28;20847;-68
2023/09/29 02:11:08;;;;;;;10.87;10.37;;;22.90;99.90;;;;;;5028044;28;20445;-67
2023/09/29 02:13:35;;;;;;;10.10;9.60;;;22.90;99.90;;;;;;5033078;28;20445;-67
2023/09/29 02:16:09;;;;;;;10.20;9.60;;;22.90;99.90;;;;;;5033053;28;20527;-68
2023/09/29 02:18:36;;;;;;;10.73;10.23;;;22.90;99.90;;;;;;5033127;28;20513;-67
2023/09/29 02:21:06;;;;;;;10.20;9.70;;;22.90;99.90;;;;;;5032709;28;20515;-67
2023/09/29 02:23:33;;;;;;;10.20;9.70;;;22.90;99.90;;;;;;5033112;28;20445;-67
2023/09/29 02:26:03;;;;;;;10.83;10.37;;;22.90;99.90;;;;;;5025078;28;20492;-68
2023/09/29 02:28:32;;;;;;;11.23;10.73;;;22.90;99.90;;;;;;5033160;28;20547;-68
2023/09/29 02:31:00;;;;;;;10.43;10.03;;;22.90;99.90;;;;;;5032943;28;20457;-67
2023/09/29 02:33:29;;;;;;;10.30;9.90;;;22.90;99.90;;;;;;5032993;28;20449;-67
2023/09/29 02:35:56;;;;;;;9.67;9.37;;;22.90;99.90;;;;;;5032004;28;20445;-67
2023/09/29 02:38:23;;;;;;;10.47;9.87;;;22.90;99.90;;;;;;5032864;28;20441;-67
2023/09/29 02:40:50;;;;;;;10.57;10.07;;;22.90;99.90;;;;;;5032590;28;21004;-67
2023/09/29 02:43:17;;;;;;;11.80;11.30;;;22.90;99.90;;;;;;5032745;28;20875;-67
2023/09/29 02:45:45;;;;;;;10.93;10.23;;;22.90;99.90;;;;;;5032307;28;20472;-67
2023/09/29 02:48:12;;;;;;;10.93;10.37;;;22.80;99.90;;;;;;5032579;28;20449;-67
2023/09/29 02:50:40;;;;;;;11.83;11.13;;;22.80;99.90;;;;;;5032585;28;20473;-68
2023/09/29 02:53:08;;;;;;;12.23;11.63;;;22.90;99.90;;;;;;5032532;28;20477;-67
2023/09/29 02:55:34;;;;;;;12.20;11.60;;;22.80;99.90;;;;;;5032245;28;20781;-67
2023/09/29 02:58:04;;;;;;;11.23;10.63;;;22.80;99.90;;;;;;5031843;28;20477;-68
2023/09/29 03:00:31;;;;;;;10.80;10.30;;;22.90;99.90;;;;;;5032208;28;20481;-67
2023/09/29 03:02:58;;;;;;;10.07;9.67;;;22.80;99.90;;;;;;5032454;28;20445;-67
2023/09/29 03:05:25;;;;;;;10.43;9.83;;;22.90;99.90;;;;;;5032142;28;21014;-67
2023/09/29 03:07:55;;;;;;;10.83;10.43;;;22.80;99.90;;;;;;5024731;28;20508;-68
2023/09/29 03:10:25;;;;;;;12.40;11.80;;;22.90;99.90;;;;;;5032164;28;20805;-67
2023/09/29 03:12:53;;;;;;;11.63;11.13;;;22.80;99.90;;;;;;5032065;28;20445;-66
2023/09/29 03:15:21;;;;;;;10.70;10.30;;;22.80;99.90;;;;;;5031865;28;20970;-67
2023/09/29 03:17:48;;;;;;;10.83;10.33;;;22.80;99.90;;;;;;5031898;28;20469;-67
2023/09/29 03:20:16;;;;;;;11.20;10.73;;;22.80;99.90;;;;;;5031624;28;20568;-67
2023/09/29 03:22:44;;;;;;;10.60;10.07;;;22.80;99.90;;;;;;5031351;28;20449;-67
2023/09/29 03:25:16;;;;;;;10.60;10.10;;;22.90;99.90;;;;;;5031979;28;20502;-67
2023/09/29 03:27:44;;;;;;;12.13;11.43;;;22.90;99.90;;;;;;5031682;28;20489;-67
2023/09/29 03:30:12;;;;;;;11.80;11.40;;;22.80;99.90;;;;;;5031818;28;20437;-68
2023/09/29 03:32:39;;;;;;;12.30;11.60;;;22.80;99.90;;;;;;5031305;28;20483;-67
2023/09/29 03:35:08;;;;;;;12.50;12.00;;;22.90;99.90;;;;;;5031560;28;20476;-68
2023/09/29 03:37:37;;;;;;;12.20;11.60;;;22.80;99.90;;;;;;5031641;28;20469;-67
2023/09/29 03:40:08;;;;;;;11.23;10.73;;;22.80;99.90;;;;;;5024035;28;20476;-66
2023/09/29 03:42:38;;;;;;;11.00;10.50;;;22.90;99.90;;;;;;5031501;28;20449;-67
2023/09/29 03:45:06;;;;;;;11.30;10.80;;;22.90;99.90;;;;;;5031465;28;20477;-67
2023/09/29 03:47:34;;;;;;;10.70;10.23;;;22.80;99.90;;;;;;5031539;28;20463;-67
2023/09/29 03:50:01;;;;;;;11.17;10.67;;;22.80;99.90;;;;;;5031624;28;20469;-66
2023/09/29 03:52:29;;;;;;;11.83;11.33;;;22.80;99.90;;;;;;5031643;28;20832;-68
2023/09/29 03:54:56;;;;;;;12.83;12.23;;;22.80;99.90;;;;;;5030551;28;20480;-67
2023/09/29 03:57:23;;;;;;;10.37;9.87;;;22.80;99.90;;;;;;5031267;28;20493;-67
2023/09/29 03:59:52;;;;;;;12.60;11.50;;;22.90;99.90;;;;;;5031412;28;20515;-67
2023/09/29 04:02:20;;;;;;;11.23;10.53;;;22.80;99.90;;;;;;5031686;28;20456;-66
2023/09/29 04:04:47;;;;;;;11.90;11.20;;;22.80;99.90;;;;;;5030745;28;20457;-67
2023/09/29 04:07:14;;;;;;;12.10;11.57;;;22.80;99.90;;;;;;5031255;28;20515;-67
2023/09/29 04:09:41;;;;;;;12.00;11.30;;;22.80;99.90;;;;;;5031262;28;20472;-67
2023/09/29 04:12:08;;;;;;;11.10;10.60;;;22.80;99.90;;;;;;5031334;28;20445;-66
2023/09/29 04:14:35;;;;;;;11.97;11.47;;;22.90;99.90;;;;;;5030828;28;20869;-66
2023/09/29 04:17:04;;;;;;;10.93;10.53;;;22.80;99.90;;;;;;5031015;28;20560;-66
2023/09/29 04:19:32;;;;;;;10.80;10.20;;;22.80;99.90;;;;;;5031383;28;20547;-67
2023/09/29 04:21:59;;;;;;;11.33;10.87;;;22.80;99.90;;;;;;5031222;28;20456;-67
2023/09/29 04:24:27;;;;;;;11.93;11.33;;;22.80;99.90;;;;;;5030953;28;20931;-68
2023/09/29 04:26:53;;;;;;;11.83;11.00;;;22.80;99.90;;;;;;5030645;28;20483;-67
2023/09/29 04:29:20;;;;;;;12.10;11.10;;;22.90;99.90;;;;;;5031483;28;20467;-67
2023/09/29 04:31:47;;;;;;;13.60;12.50;;;22.90;99.90;;;;;;5031248;28;20468;-68
2023/09/29 04:34:15;;;;;;;15.07;12.73;;;22.90;99.90;;;;;;5035038;28;20484;-67
2023/09/29 04:36:42;;;;;;;18.43;14.90;;;22.90;99.90;;;;;;5034896;28;20835;-67
2023/09/29 04:39:09;;;;;;;19.30;13.57;;;22.90;99.90;;;;;;5035124;28;20479;-67
2023/09/29 04:41:37;;;;;;;18.23;13.30;;;22.90;99.90;;;;;;5034962;28;20851;-67
2023/09/29 04:44:05;;;;;;;20.70;16.37;;;22.90;99.90;;;;;;5027099;28;20453;-67
2023/09/29 04:46:33;;;;;;;18.23;14.47;;;22.90;99.90;;;;;;5034139;28;20465;-67
2023/09/29 04:49:03;;;;;;;27.67;13.03;;;22.90;99.90;;;;;;5034349;28;20449;-68
2023/09/29 04:51:32;;;;;;;17.87;15.33;;;22.90;99.90;;;;;;5034913;28;20445;-67
2023/09/29 04:53:58;;;;;;;13.20;12.10;;;22.80;99.90;;;;;;5034967;28;20445;-68
2023/09/29 04:56:25;;;;;;;13.73;12.23;;;22.80;99.90;;;;;;5034479;28;21013;-68
2023/09/29 04:58:52;;;;;;;13.80;12.70;;;22.80;99.90;;;;;;5035146;28;20464;-67
2023/09/29 05:01:20;;;;;;;13.40;12.30;;;22.80;99.90;;;;;;5034790;28;20520;-67
2023/09/29 05:03:48;;;;;;;12.10;11.30;;;22.80;99.90;;;;;;5034856;28;20437;-68
2023/09/29 05:06:14;;;;;;;13.00;12.30;;;22.70;99.90;;;;;;5034378;28;20457;-67
2023/09/29 05:08:43;;;;;;;12.27;11.30;;;22.70;99.90;;;;;;5034724;28;20476;-68
2023/09/29 05:11:19;;;;;;;11.70;11.00;;;22.70;99.90;;;;;;5034684;28;20461;-68
2023/09/29 05:13:46;;;;;;;13.70;13.00;;;22.70;99.90;;;;;;5034436;28;20448;-67
2023/09/29 05:16:13;;;;;;;12.53;11.93;;;22.70;99.90;;;;;;5034184;28;20484;-68
2023/09/29 05:18:40;;;;;;;12.80;11.83;;;22.70;99.90;;;;;;5034128;28;20465;-67
2023/09/29 05:21:07;;;;;;;14.17;13.00;;;22.70;99.90;;;;;;5034200;28;20473;-68
2023/09/29 05:23:34;;;;;;;11.80;11.20;;;22.70;99.90;;;;;;5034221;28;20479;-67
2023/09/29 05:26:04;;;;;;;13.33;12.40;;;22.70;99.90;;;;;;5033777;28;20489;-67
2023/09/29 05:28:31;;;;;;;11.37;10.57;;;22.70;99.90;;;;;;5034342;28;20445;-67
2023/09/29 05:30:59;;;;;;;12.60;11.80;;;22.70;99.90;;;;;;5034325;28;20461;-68
2023/09/29 05:33:25;;;;;;;11.47;10.97;;;22.70;99.90;;;;;;5034756;28;20442;-67
2023/09/29 05:35:52;;;;;;;11.77;11.07;;;22.70;99.90;;;;;;5034987;28;20465;-67
2023/09/29 05:38:19;;;;;;;10.83;10.10;;;22.70;99.90;;;;;;5034216;28;20496;-67
2023/09/29 05:40:47;;;;;;;12.33;11.57;;;22.70;99.90;;;;;;5033864;28;21042;-68
2023/09/29 05:43:15;;;;;;;12.00;11.40;;;22.60;99.90;;;;;;5033843;28;20441;-67
2023/09/29 05:45:42;;;;;;;11.20;10.20;;;22.60;99.90;;;;;;5033474;28;20855;-67
2023/09/29 05:48:09;;;;;;;11.23;10.33;;;22.60;99.90;;;;;;5034170;28;20995;-68
2023/09/29 05:50:36;;;;;;;11.43;10.83;;;22.60;99.90;;;;;;5034127;28;20823;-68
2023/09/29 05:53:04;;;;;;;12.27;11.57;;;22.60;99.90;;;;;;5034111;28;20441;-67
2023/09/29 05:55:31;;;;;;;11.40;10.80;;;22.60;99.90;;;;;;5034223;28;20451;-67
2023/09/29 05:57:58;;;;;;;12.60;11.80;;;22.60;99.90;;;;;;5034560;28;20500;-67
2023/09/29 06:00:26;;;;;;;12.37;11.77;;;22.60;99.90;;;;;;5034642;28;20508;-67
2023/09/29 06:02:54;;;;;;;12.13;11.43;;;22.60;99.90;;;;;;5035827;28;20480;-67
2023/09/29 06:05:21;;;;;;;11.47;10.67;;;22.60;99.90;;;;;;5035680;28;20449;-67
2023/09/29 06:07:48;;;;;;;11.07;10.50;;;22.60;99.90;;;;;;5036049;28;20496;-67
2023/09/29 06:10:15;;;;;;;12.03;11.43;;;22.60;99.90;;;;;;5036648;28;20472;-67
2023/09/29 06:12:42;;;;;;;12.10;11.43;;;22.60;99.90;;;;;;5037504;28;20477;-67
2023/09/29 06:15:10;;;;;;;12.83;12.20;;;22.60;99.90;;;;;;5035562;28;20445;-67
2023/09/29 06:17:39;;;;;;;12.90;12.23;;;22.60;99.90;;;;;;5035726;28;20468;-68
2023/09/29 06:20:07;;;;;;;13.10;12.10;;;22.60;99.90;;;;;;5035686;28;20520;-67
2023/09/29 06:22:34;;;;;;;11.60;10.90;;;22.50;99.90;;;;;;5034985;28;20437;-67
2023/09/29 06:25:01;;;;;;;12.47;11.80;;;22.50;99.90;;;;;;5034952;28;20445;-67
2023/09/29 06:27:28;;;;;;;13.17;12.47;;;22.50;99.90;;;;;;5037055;28;20832;-67
2023/09/29 06:29:55;;;;;;;12.50;11.90;;;22.50;99.90;;;;;;5037189;28;20480;-67
2023/09/29 06:32:22;;;;;;;13.20;12.50;;;22.50;99.90;;;;;;5037288;28;20503;-67
2023/09/29 06:34:50;;;;;;;12.30;11.67;;;22.50;99.90;;;;;;5039635;28;20908;-68
2023/09/29 06:37:18;;;;;;;14.47;13.67;;;22.60;99.90;;;;;;5038908;28;20449;-68
2023/09/29 06:39:45;;;;;;;12.47;11.87;;;22.50;99.90;;;;;;5039371;28;20472;-67
2023/09/29 06:42:12;;;;;;;11.70;10.93;;;22.50;99.90;;;;;;5039304;28;20554;-67
2023/09/29 06:44:39;;;;;;;12.83;12.03;;;22.50;99.90;;;;;;5036146;28;20472;-67
2023/09/29 06:47:06;;;;;;;10.97;10.47;;;22.50;99.90;;;;;;5034347;28;20491;-67
2023/09/29 06:49:33;;;;;;;11.50;11.10;;;22.50;99.90;;;;;;5034126;28;20509;-67
2023/09/29 06:52:01;;;;;;;11.53;10.90;;;22.60;99.90;;;;;;5033526;28;20478;-66
2023/09/29 06:54:29;;;;;;;12.07;11.47;;;22.60;99.90;;;;;;5038632;28;20437;-66
2023/09/29 06:56:56;;;;;;;10.63;10.17;;;22.60;99.90;;;;;;5041839;28;20835;-67
2023/09/29 06:59:23;;;;;;;11.60;11.07;;;22.50;99.90;;;;;;5037778;28;20445;-67
2023/09/29 07:01:50;;;;;;;10.70;10.27;;;22.50;99.90;;;;;;5036525;28;20513;-66
2023/09/29 07:04:17;;;;;;;11.13;10.60;;;22.50;99.90;;;;;;5036217;28;20476;-67
2023/09/29 07:06:44;;;;;;;11.30;10.80;;;22.60;99.90;;;;;;5035617;28;20468;-65
2023/09/29 07:09:13;;;;;;;11.27;10.67;;;22.50;99.90;;;;;;5035123;28;20970;-66
2023/09/29 07:11:41;;;;;;;11.93;11.50;;;22.50;99.90;;;;;;5035881;28;20452;-67
2023/09/29 07:14:08;;;;;;;11.50;10.70;;;22.50;99.90;;;;;;5039522;28;20476;-67
2023/09/29 07:16:35;;;;;;;13.33;12.77;;;22.50;99.90;;;;;;5038649;28;20465;-67
2023/09/29 07:19:03;;;;;;;12.20;11.70;;;22.50;99.90;;;;;;5037053;28;20476;-67
2023/09/29 07:21:30;;;;;;;10.77;10.40;;;22.50;99.90;;;;;;5035134;28;20483;-67
2023/09/29 07:23:57;;;;;;;12.00;11.20;;;22.50;99.90;;;;;;5035268;28;20468;-67
2023/09/29 07:26:26;;;;;;;12.03;11.53;;;22.50;99.90;;;;;;5035984;28;20469;-66
2023/09/29 07:28:54;;;;;;;11.13;10.73;;;22.50;99.90;;;;;;5031683;28;20452;-67
2023/09/29 07:31:21;;;;;;;12.10;11.50;;;22.50;99.90;;;;;;5031779;28;20448;-66
2023/09/29 07:33:48;;;;;;;12.03;11.53;;;22.50;99.90;;;;;;5031976;28;20467;-66
2023/09/29 07:36:15;;;;;;;12.03;11.40;;;22.50;99.90;;;;;;5031355;28;20485;-66
2023/09/29 07:38:41;;;;;;;11.87;11.37;;;22.50;99.90;;;;;;5031618;28;20468;-66
2023/09/29 07:41:09;;;;;;;10.87;10.37;;;22.50;99.90;;;;;;5031285;28;20545;-66
2023/09/29 07:43:37;;;;;;;11.10;10.60;;;22.50;99.90;;;;;;5031552;28;20461;-66
2023/09/29 07:46:04;;;;;;;12.13;11.33;;;22.50;99.90;;;;;;5036155;28;20489;-67
2023/09/29 07:48:30;;;;;;;13.27;12.43;;;22.50;99.90;;;;;;5036750;28;20487;-67
2023/09/29 07:50:57;;;;;;;11.80;11.20;;;22.50;99.90;;;;;;5036371;28;20469;-67
2023/09/29 07:53:24;;;;;;;11.40;10.90;;;22.50;99.90;;;;;;5036649;28;20510;-67
2023/09/29 07:55:52;;;;;;;11.00;10.60;;;22.60;99.90;;;;;;5035300;28;20469;-65
2023/09/29 07:58:19;;;;;;;11.63;11.13;;;22.50;99.90;;;;;;5107546;22;20483;-68
2023/09/29 08:00:47;;;;;;;12.20;11.67;;;22.50;99.90;;;;;;5071098;28;20467;-69
2023/09/29 08:03:15;;;;;;;10.77;10.30;;;22.50;99.90;;;;;;5071215;28;20874;-69
2023/09/29 08:05:41;;;;;;;10.03;9.63;;;22.50;99.90;;;;;;5071040;28;20493;-69
2023/09/29 08:08:08;;;;;;;10.77;10.37;;;22.50;99.90;;;;;;5053531;28;20491;-69
2023/09/29 08:10:35;;;;;;;10.73;10.23;;;22.50;99.90;;;;;;5051193;28;20468;-68
2023/09/29 08:13:02;;;;;;;10.73;10.20;;;22.50;99.90;;;;;;5051124;28;20449;-68
2023/09/29 08:15:28;;;;;;;10.57;10.10;;;22.50;99.90;;;;;;5050962;28;20471;-68
2023/09/29 08:17:57;;;;;;;10.90;10.50;;;22.50;99.90;;;;;;5050806;28;20483;-68
2023/09/29 08:20:24;;;;;;;11.77;10.83;;;22.50;99.90;;;;;;5051078;28;20482;-68
2023/09/29 08:22:51;;;;;;;10.93;10.63;;;22.50;99.90;;;;;;5050829;28;20568;-69
2023/09/29 08:25:19;;;;;;;11.10;10.50;;;22.50;99.90;;;;;;5050832;28;20864;-68
2023/09/29 08:27:46;;;;;;;11.07;10.40;;;22.50;99.90;;;;;;5051045;28;20476;-68
2023/09/29 08:30:13;;;;;;;10.93;10.53;;;22.50;99.90;;;;;;5042982;28;20440;-69
2023/09/29 08:32:43;;;;;;;10.70;10.20;;;22.50;99.90;;;;;;5050943;28;20544;-68
2023/09/29 08:35:13;;;;;;;11.07;10.60;;;22.50;99.90;;;;;;5050918;28;20807;-69
2023/09/29 08:37:40;;;;;;;10.83;10.40;;;22.50;99.90;;;;;;5050989;28;20997;-69
2023/09/29 08:40:09;;;;;;;11.40;10.80;;;22.50;99.90;;;;;;5050768;28;20472;-69
2023/09/29 08:42:37;;;;;;;12.00;11.50;;;22.50;99.90;;;;;;5050825;28;20986;-69
2023/09/29 08:45:09;;;;;;;11.20;10.70;;;22.50;99.90;;;;;;5050612;28;20453;-69
2023/09/29 08:47:37;;;;;;;11.10;10.50;;;22.50;99.90;;;;;;5050832;28;20467;-69
2023/09/29 08:50:05;;;;;;;9.57;9.27;;;22.60;99.90;;;;;;5050840;28;20448;-69
2023/09/29 08:52:34;;;;;;;10.00;9.50;;;22.60;99.90;;;;;;5050812;28;20464;-69
2023/09/29 08:55:02;;;;;;;9.37;9.03;;;22.60;99.90;;;;;;5050449;28;20484;-69
2023/09/29 08:57:30;;;;;;;10.17;9.67;;;22.50;99.90;;;;;;5050473;28;20475;-69
2023/09/29 08:59:58;;;;;;;9.23;8.93;;;22.60;99.90;;;;;;5050615;28;20479;-69
2023/09/29 09:02:26;;;;;;;11.20;10.50;;;22.60;99.90;;;;;;5050642;28;20485;-69
2023/09/29 09:04:53;;;;;;;10.30;9.60;;;22.60;99.90;;;;;;5050366;28;20531;-68
2023/09/29 09:07:21;;;;;;;10.70;9.80;;;22.60;99.90;;;;;;5050737;28;20495;-69
2023/09/29 09:09:50;;;;;;;10.80;10.30;;;22.60;99.90;;;;;;5050458;28;20498;-69
2023/09/29 09:12:17;;;;;;;10.30;9.90;;;22.60;99.90;;;;;;5050659;28;20814;-69
2023/09/29 09:14:44;;;;;;;9.97;9.63;;;22.60;99.90;;;;;;5050653;28;21055;-69
2023/09/29 09:17:12;;;;;;;11.57;10.97;;;22.60;99.90;;;;;;5050439;28;20494;-69
2023/09/29 09:19:50;;;;;;;10.80;10.23;;;22.60;99.90;;;;;;5052095;28;20436;-69
2023/09/29 09:22:18;;;;;;;10.83;10.33;;;22.60;99.90;;;;;;5054073;28;20480;-69
2023/09/29 09:24:46;;;;;;;10.70;10.23;;;22.70;99.90;;;;;;5053782;28;20471;-69
2023/09/29 09:27:14;;;;;;;10.20;9.70;;;22.70;99.90;;;;;;5045696;28;21101;-69
2023/09/29 09:29:42;;;;;;;10.83;10.33;;;22.70;99.90;;;;;;5054044;28;20464;-69
2023/09/29 09:32:10;;;;;;;10.57;9.97;;;22.70;99.90;;;;;;5053742;28;20520;-69
2023/09/29 09:34:39;;;;;;;10.10;9.53;;;22.70;99.90;;;;;;5053640;28;20452;-70
2023/09/29 09:37:07;;;;;;;9.40;8.80;;;22.70;99.90;;;;;;5053653;28;20464;-70
2023/09/29 09:39:35;;;;;;;9.73;9.33;;;22.70;99.90;;;;;;5053823;28;20440;-70
2023/09/29 09:42:05;;;;;;;9.63;9.13;;;22.80;99.90;;;;;;5053680;28;20557;-71
2023/09/29 09:44:36;;;;;;;10.47;9.73;;;22.70;99.90;;;;;;5053760;28;20458;-70
2023/09/29 09:47:04;;;;;;;9.03;8.63;;;22.70;99.90;;;;;;5053393;28;20464;-70
2023/09/29 09:49:38;;;;;;;10.67;10.00;;;22.70;99.90;;;;;;5053536;28;20531;-70
2023/09/29 09:52:08;;;;;;;9.70;9.40;;;22.80;99.90;;;;;;5053446;28;20530;-70
2023/09/29 09:54:44;;;;;;;8.73;8.30;;;22.70;99.90;;;;;;5053486;28;20519;-70
2023/09/29 09:57:13;;;;;;;9.80;9.30;;;22.70;99.90;;;;;;5053386;28;20471;-69
2023/09/29 09:59:44;;;;;;;9.73;9.30;;;22.70;99.90;;;;;;5053746;28;20440;-70
2023/09/29 10:02:11;;;;;;;10.60;10.30;;;22.70;99.90;;;;;;5053118;28;20476;-70
2023/09/29 10:04:39;;;;;;;9.80;9.40;;;22.70;99.90;;;;;;5053085;28;20445;-70
2023/09/29 10:07:07;;;;;;;9.40;9.00;;;22.70;99.90;;;;;;5053013;28;20488;-69
2023/09/29 10:09:45;;;;;;;10.90;9.47;;;22.80;99.90;;;;;;5053278;28;20480;-70
2023/09/29 10:12:26;;;;;;;10.23;9.73;;;22.70;99.90;;;;;;5053181;28;20886;-69
2023/09/29 10:14:55;;;;;;;10.53;10.03;;;22.80;99.90;;;;;;5052829;28;20817;-69
2023/09/29 10:17:23;;;;;;;10.57;10.17;;;22.80;99.90;;;;;;5052976;28;20551;-70
2023/09/29 10:19:54;;;;;;;10.80;10.40;;;22.70;99.90;;;;;;5053061;28;20944;-70
2023/09/29 10:22:25;;;;;;;10.87;10.27;;;22.80;99.90;;;;;;5045578;28;20909;-70
2023/09/29 10:24:56;;;;;;;11.83;11.33;;;22.80;99.90;;;;;;5052708;28;20450;-70
2023/09/29 10:27:32;;;;;;;11.97;11.47;;;22.80;99.90;;;;;;5052781;28;20471;-70
2023/09/29 10:30:17;;;;;;;10.43;10.03;;;22.80;99.90;;;;;;5052230;28;20451;-70
2023/09/29 10:32:48;;;;;;;10.87;10.43;;;22.80;99.90;;;;;;5052727;28;20502;-70
2023/09/29 10:35:19;;;;;;;11.60;11.10;;;22.90;99.90;;;;;;5052444;28;20816;-70
2023/09/29 10:37:54;;;;;;;11.13;10.47;;;22.80;99.90;;;;;;5052763;28;20537;-70
2023/09/29 10:40:22;;;;;;;13.87;13.00;;;22.90;99.90;;;;;;5045105;28;20443;-70
2023/09/29 10:42:54;;;;;;;11.40;10.90;;;22.80;99.90;;;;;;5052514;28;20537;-70
2023/09/29 10:45:36;;;;;;;11.03;10.63;;;22.90;99.90;;;;;;5052455;28;20851;-70
2023/09/29 10:48:06;;;;;;;11.77;11.27;;;22.90;99.90;;;;;;5052376;28;20982;-70
2023/09/29 10:50:42;;;;;;;12.07;11.43;;;22.90;99.90;;;;;;5052494;28;20451;-70
2023/09/29 10:53:10;;;;;;;11.37;10.83;;;22.90;99.90;;;;;;5052524;28;20440;-70
2023/09/29 10:55:48;;;;;;;12.93;12.10;;;22.90;99.90;;;;;;5052067;28;20471;-70
2023/09/29 10:58:16;;;;;;;11.07;10.37;;;22.90;99.90;;;;;;5052708;28;21001;-71
2023/09/29 11:00:47;;;;;;;11.70;11.10;;;22.90;99.90;;;;;;5052564;28;20468;-70
2023/09/29 11:03:14;;;;;;;11.20;10.47;;;22.90;99.90;;;;;;5052017;28;20917;-69
2023/09/29 11:05:51;;;;;;;13.00;12.30;;;22.90;99.90;;;;;;5051888;28;20502;-70
2023/09/29 11:08:20;;;;;;;13.43;12.37;;;22.90;99.90;;;;;;5043973;28;21009;-70
2023/09/29 11:10:55;;;;;;;12.83;12.13;;;22.90;99.90;;;;;;5051994;28;20540;-70
2023/09/29 11:13:22;;;;;;;12.73;11.97;;;22.90;99.90;;;;;;5044475;28;20440;-70
2023/09/29 11:15:51;;;;;;;14.50;13.73;;;22.90;99.90;;;;;;5051725;28;20863;-70
2023/09/29 11:18:27;;;;;;;11.80;11.33;;;22.90;99.90;;;;;;5043801;28;20509;-71
2023/09/29 11:20:54;;;;;;;11.90;11.40;;;23.00;99.90;;;;;;5051682;28;20463;-71
2023/09/29 11:23:21;;;;;;;13.07;12.13;;;22.90;99.90;;;;;;5051959;28;20512;-70
2023/09/29 11:25:49;;;;;;;12.80;12.10;;;23.00;99.90;;;;;;5051609;28;20435;-70
2023/09/29 11:28:16;;;;;;;14.47;13.67;;;22.90;99.90;;;;;;5051447;28;20543;-70
2023/09/29 11:30:43;;;;;;;13.23;12.23;;;23.00;99.90;;;;;;5051600;28;20436;-70
2023/09/29 11:33:13;;;;;;;12.53;11.73;;;22.90;99.90;;;;;;5051463;28;20455;-70
2023/09/29 11:35:41;;;;;;;12.80;12.20;;;23.00;99.90;;;;;;5051608;28;20531;-70
2023/09/29 11:38:08;;;;;;;11.60;11.00;;;23.00;99.90;;;;;;5051492;28;21035;-70
2023/09/29 11:40:35;;;;;;;12.47;11.73;;;23.00;99.90;;;;;;5051420;28;20471;-70
2023/09/29 11:43:02;;;;;;;12.20;11.40;;;23.00;99.90;;;;;;5050785;28;21017;-70
2023/09/29 11:45:29;;;;;;;14.07;13.07;;;23.00;99.90;;;;;;5051378;28;20875;-70
2023/09/29 11:47:56;;;;;;;13.43;12.10;;;23.00;99.90;;;;;;5051267;28;20496;-70
2023/09/29 11:50:25;;;;;;;12.20;11.50;;;23.00;99.90;;;;;;5051476;28;20476;-70
2023/09/29 11:52:53;;;;;;;13.20;12.30;;;23.00;99.90;;;;;;5051390;28;20466;-71
2023/09/29 11:55:20;;;;;;;13.83;12.70;;;23.00;99.90;;;;;;5043265;28;20819;-71
2023/09/29 11:57:47;;;;;;;12.60;12.00;;;23.00;99.90;;;;;;5051371;28;20511;-71
2023/09/29 12:00:14;;;;;;;12.30;11.57;;;23.00;99.90;;;;;;5051136;28;20480;-70
2023/09/29 12:02:41;;;;;;;12.77;12.03;;;23.00;99.90;;;;;;5051392;28;20486;-71
2023/09/29 12:05:09;;;;;;;12.20;11.40;;;23.10;99.90;;;;;;5051307;28;20455;-70
2023/09/29 12:07:37;;;;;;;13.03;12.23;;;23.00;99.90;;;;;;5051202;28;20467;-70
2023/09/29 12:10:05;;;;;;;12.70;11.80;;;23.10;99.90;;;;;;5051249;28;20479;-70
2023/09/29 12:12:33;;;;;;;13.13;11.27;;;23.00;99.90;;;;;;5051289;28;20468;-70
2023/09/29 12:15:00;;;;;;;13.03;12.17;;;23.10;99.90;;;;;;5050914;28;20845;-70
2023/09/29 12:17:27;;;;;;;12.73;11.97;;;23.00;99.90;;;;;;5051331;28;20826;-70
2023/09/29 12:19:54;;;;;;;12.47;11.77;;;23.00;99.90;;;;;;5051235;28;20437;-71
2023/09/29 12:22:20;;;;;;;12.83;12.13;;;23.10;99.90;;;;;;5042997;28;20534;-70
2023/09/29 12:24:49;;;;;;;13.03;11.73;;;23.00;99.90;;;;;;5051055;28;20467;-70
2023/09/29 12:27:16;;;;;;;11.40;10.80;;;23.00;99.90;;;;;;5050774;28;20466;-70
2023/09/29 12:29:44;;;;;;;11.63;10.87;;;23.00;99.90;;;;;;5050917;28;20468;-70
2023/09/29 12:32:11;;;;;;;13.50;12.73;;;23.00;99.90;;;;;;5051154;28;20448;-70
2023/09/29 12:34:38;;;;;;;13.07;12.47;;;23.00;99.90;;;;;;5050844;28;20468;-70